sensor_id;sensor_type;location;lat;lon;timestamp;P1;durP1;ratioP1;P2;durP2;ratioP2
72427;SDS011;60419;48.880;18.036;2023-07-08T00:00:25;9.02;;;4.43;;
72427;SDS011;60419;48.880;18.036;2023-07-08T00:03:10;7.95;;;4.57;;
72427;SDS011;60419;48.880;18.036;2023-07-08T00:05:56;8.82;;;5.32;;
72427;SDS011;60419;48.880;18.036;2023-07-08T00:08:41;9.15;;;5.30;;
72427;SDS011;60419;48.880;18.036;2023-07-08T00:11:28;5.93;;;4.30;;
72427;SDS011;60419;48.880;18.036;2023-07-08T00:14:14;7.82;;;4.22;;
72427;SDS011;60419;48.880;18.036;2023-07-08T00:16:59;7.20;;;3.88;;
72427;SDS011;60419;48.880;18.036;2023-07-08T00:19:45;6.55;;;4.10;;
72427;SDS011;60419;48.880;18.036;2023-07-08T00:22:30;7.55;;;4.03;;
72427;SDS011;60419;48.880;18.036;2023-07-08T00:25:16;8.93;;;3.90;;
72427;SDS011;60419;48.880;18.036;2023-07-08T00:28:02;6.35;;;3.95;;
72427;SDS011;60419;48.880;18.036;2023-07-08T00:30:49;6.18;;;3.47;;
72427;SDS011;60419;48.880;18.036;2023-07-08T00:33:35;7.07;;;3.60;;
72427;SDS011;60419;48.880;18.036;2023-07-08T00:36:20;8.38;;;3.97;;
72427;SDS011;60419;48.880;18.036;2023-07-08T00:39:12;7.28;;;3.97;;
72427;SDS011;60419;48.880;18.036;2023-07-08T00:42:00;8.70;;;4.50;;
72427;SDS011;60419;48.880;18.036;2023-07-08T00:44:50;6.93;;;4.40;;
72427;SDS011;60419;48.880;18.036;2023-07-08T00:47:35;5.78;;;3.50;;
72427;SDS011;60419;48.880;18.036;2023-07-08T00:50:21;7.35;;;3.80;;
72427;SDS011;60419;48.880;18.036;2023-07-08T00:56:23;7.20;;;3.60;;
72427;SDS011;60419;48.880;18.036;2023-07-08T00:59:11;6.57;;;3.75;;
72427;SDS011;60419;48.880;18.036;2023-07-08T01:02:18;6.72;;;3.60;;
72427;SDS011;60419;48.880;18.036;2023-07-08T01:05:08;8.90;;;3.70;;
72427;SDS011;60419;48.880;18.036;2023-07-08T01:07:57;6.20;;;4.13;;
72427;SDS011;60419;48.880;18.036;2023-07-08T01:10:49;9.23;;;4.07;;
72427;SDS011;60419;48.880;18.036;2023-07-08T01:13:39;5.45;;;3.70;;
72427;SDS011;60419;48.880;18.036;2023-07-08T01:16:28;7.60;;;3.95;;
72427;SDS011;60419;48.880;18.036;2023-07-08T01:19:15;6.90;;;3.83;;
72427;SDS011;60419;48.880;18.036;2023-07-08T01:22:04;6.38;;;3.80;;
72427;SDS011;60419;48.880;18.036;2023-07-08T01:24:51;9.07;;;3.60;;
72427;SDS011;60419;48.880;18.036;2023-07-08T01:27:37;5.38;;;3.50;;
72427;SDS011;60419;48.880;18.036;2023-07-08T01:30:26;5.85;;;3.30;;
72427;SDS011;60419;48.880;18.036;2023-07-08T01:33:19;5.07;;;3.28;;
72427;SDS011;60419;48.880;18.036;2023-07-08T01:36:10;6.60;;;4.10;;
72427;SDS011;60419;48.880;18.036;2023-07-08T01:38:56;5.53;;;3.13;;
72427;SDS011;60419;48.880;18.036;2023-07-08T01:41:42;5.82;;;3.63;;
72427;SDS011;60419;48.880;18.036;2023-07-08T01:44:29;8.45;;;3.45;;
72427;SDS011;60419;48.880;18.036;2023-07-08T01:47:16;5.80;;;3.60;;
72427;SDS011;60419;48.880;18.036;2023-07-08T01:50:05;6.30;;;3.30;;
72427;SDS011;60419;48.880;18.036;2023-07-08T01:52:52;5.78;;;3.53;;
72427;SDS011;60419;48.880;18.036;2023-07-08T01:55:40;5.03;;;3.00;;
72427;SDS011;60419;48.880;18.036;2023-07-08T01:58:25;6.32;;;3.72;;
72427;SDS011;60419;48.880;18.036;2023-07-08T02:01:11;6.60;;;3.88;;
72427;SDS011;60419;48.880;18.036;2023-07-08T02:03:57;6.72;;;3.95;;
72427;SDS011;60419;48.880;18.036;2023-07-08T02:06:42;6.68;;;3.83;;
72427;SDS011;60419;48.880;18.036;2023-07-08T02:09:28;6.65;;;3.45;;
72427;SDS011;60419;48.880;18.036;2023-07-08T02:12:13;6.63;;;3.95;;
72427;SDS011;60419;48.880;18.036;2023-07-08T02:15:01;8.23;;;4.07;;
72427;SDS011;60419;48.880;18.036;2023-07-08T02:17:48;6.63;;;4.00;;
72427;SDS011;60419;48.880;18.036;2023-07-08T02:20:35;8.80;;;3.67;;
72427;SDS011;60419;48.880;18.036;2023-07-08T02:23:20;6.85;;;3.28;;
72427;SDS011;60419;48.880;18.036;2023-07-08T02:26:06;7.55;;;3.92;;
72427;SDS011;60419;48.880;18.036;2023-07-08T02:28:52;5.43;;;3.38;;
72427;SDS011;60419;48.880;18.036;2023-07-08T02:31:37;5.28;;;3.47;;
72427;SDS011;60419;48.880;18.036;2023-07-08T02:34:22;8.32;;;4.20;;
72427;SDS011;60419;48.880;18.036;2023-07-08T02:37:08;7.18;;;3.67;;
72427;SDS011;60419;48.880;18.036;2023-07-08T02:39:53;6.40;;;3.33;;
72427;SDS011;60419;48.880;18.036;2023-07-08T02:42:38;6.20;;;3.85;;
72427;SDS011;60419;48.880;18.036;2023-07-08T02:45:24;5.90;;;3.50;;
72427;SDS011;60419;48.880;18.036;2023-07-08T02:48:09;5.88;;;3.50;;
72427;SDS011;60419;48.880;18.036;2023-07-08T02:50:58;8.95;;;3.80;;
72427;SDS011;60419;48.880;18.036;2023-07-08T02:53:48;6.47;;;3.28;;
72427;SDS011;60419;48.880;18.036;2023-07-08T02:56:34;6.80;;;3.58;;
72427;SDS011;60419;48.880;18.036;2023-07-08T02:59:20;7.18;;;4.18;;
72427;SDS011;60419;48.880;18.036;2023-07-08T03:02:05;6.70;;;3.30;;
72427;SDS011;60419;48.880;18.036;2023-07-08T03:04:50;8.95;;;3.25;;
72427;SDS011;60419;48.880;18.036;2023-07-08T03:07:36;6.03;;;3.60;;
72427;SDS011;60419;48.880;18.036;2023-07-08T03:10:21;6.40;;;3.50;;
72427;SDS011;60419;48.880;18.036;2023-07-08T03:13:07;6.90;;;3.38;;
72427;SDS011;60419;48.880;18.036;2023-07-08T03:15:52;7.07;;;3.92;;
72427;SDS011;60419;48.880;18.036;2023-07-08T03:18:39;7.38;;;4.10;;
72427;SDS011;60419;48.880;18.036;2023-07-08T03:21:31;6.80;;;3.75;;
72427;SDS011;60419;48.880;18.036;2023-07-08T03:24:16;6.53;;;3.85;;
72427;SDS011;60419;48.880;18.036;2023-07-08T03:27:03;5.47;;;3.50;;
72427;SDS011;60419;48.880;18.036;2023-07-08T03:29:50;5.47;;;3.53;;
72427;SDS011;60419;48.880;18.036;2023-07-08T03:32:35;7.05;;;3.90;;
72427;SDS011;60419;48.880;18.036;2023-07-08T03:35:21;5.82;;;3.65;;
72427;SDS011;60419;48.880;18.036;2023-07-08T03:38:07;7.15;;;4.00;;
72427;SDS011;60419;48.880;18.036;2023-07-08T03:40:52;6.95;;;3.78;;
72427;SDS011;60419;48.880;18.036;2023-07-08T03:43:37;7.13;;;4.00;;
72427;SDS011;60419;48.880;18.036;2023-07-08T03:46:23;9.50;;;4.30;;
72427;SDS011;60419;48.880;18.036;2023-07-08T03:49:09;7.50;;;3.97;;
72427;SDS011;60419;48.880;18.036;2023-07-08T03:51:55;6.95;;;3.85;;
72427;SDS011;60419;48.880;18.036;2023-07-08T03:54:40;6.30;;;4.03;;
72427;SDS011;60419;48.880;18.036;2023-07-08T03:57:26;11.05;;;4.32;;
72427;SDS011;60419;48.880;18.036;2023-07-08T04:00:12;8.13;;;4.97;;
72427;SDS011;60419;48.880;18.036;2023-07-08T04:02:58;7.15;;;4.00;;
72427;SDS011;60419;48.880;18.036;2023-07-08T04:05:43;6.25;;;3.65;;
72427;SDS011;60419;48.880;18.036;2023-07-08T04:08:28;8.45;;;4.78;;
72427;SDS011;60419;48.880;18.036;2023-07-08T04:11:15;6.18;;;3.70;;
72427;SDS011;60419;48.880;18.036;2023-07-08T04:14:02;12.65;;;3.90;;
72427;SDS011;60419;48.880;18.036;2023-07-08T04:16:48;7.53;;;4.00;;
72427;SDS011;60419;48.880;18.036;2023-07-08T04:19:37;6.03;;;4.03;;
72427;SDS011;60419;48.880;18.036;2023-07-08T04:22:24;5.90;;;3.80;;
72427;SDS011;60419;48.880;18.036;2023-07-08T04:25:10;6.30;;;3.83;;
72427;SDS011;60419;48.880;18.036;2023-07-08T04:27:57;6.43;;;3.70;;
72427;SDS011;60419;48.880;18.036;2023-07-08T04:30:42;6.00;;;3.25;;
72427;SDS011;60419;48.880;18.036;2023-07-08T04:33:28;7.35;;;3.42;;
72427;SDS011;60419;48.880;18.036;2023-07-08T04:36:13;6.13;;;3.33;;
72427;SDS011;60419;48.880;18.036;2023-07-08T04:38:59;8.77;;;4.28;;
72427;SDS011;60419;48.880;18.036;2023-07-08T04:41:46;5.85;;;3.72;;
72427;SDS011;60419;48.880;18.036;2023-07-08T04:44:31;8.05;;;3.97;;
72427;SDS011;60419;48.880;18.036;2023-07-08T04:47:17;6.05;;;3.97;;
72427;SDS011;60419;48.880;18.036;2023-07-08T04:50:05;7.28;;;4.32;;
72427;SDS011;60419;48.880;18.036;2023-07-08T04:52:50;7.70;;;4.50;;
72427;SDS011;60419;48.880;18.036;2023-07-08T04:55:36;5.75;;;3.95;;
72427;SDS011;60419;48.880;18.036;2023-07-08T04:58:24;7.45;;;3.90;;
72427;SDS011;60419;48.880;18.036;2023-07-08T05:01:10;7.05;;;4.07;;
72427;SDS011;60419;48.880;18.036;2023-07-08T05:03:56;10.38;;;4.47;;
72427;SDS011;60419;48.880;18.036;2023-07-08T05:06:41;7.68;;;4.25;;
72427;SDS011;60419;48.880;18.036;2023-07-08T05:09:27;7.50;;;4.20;;
72427;SDS011;60419;48.880;18.036;2023-07-08T05:12:14;7.03;;;3.90;;
72427;SDS011;60419;48.880;18.036;2023-07-08T05:14:59;9.55;;;4.10;;
72427;SDS011;60419;48.880;18.036;2023-07-08T05:17:44;5.32;;;3.15;;
72427;SDS011;60419;48.880;18.036;2023-07-08T05:20:30;7.50;;;3.90;;
72427;SDS011;60419;48.880;18.036;2023-07-08T05:23:18;6.55;;;3.72;;
72427;SDS011;60419;48.880;18.036;2023-07-08T05:26:03;7.97;;;3.88;;
72427;SDS011;60419;48.880;18.036;2023-07-08T05:28:50;6.15;;;3.63;;
72427;SDS011;60419;48.880;18.036;2023-07-08T05:31:35;7.18;;;3.42;;
72427;SDS011;60419;48.880;18.036;2023-07-08T05:34:21;7.68;;;3.72;;
72427;SDS011;60419;48.880;18.036;2023-07-08T05:37:06;6.95;;;3.95;;
72427;SDS011;60419;48.880;18.036;2023-07-08T05:39:52;6.60;;;3.60;;
72427;SDS011;60419;48.880;18.036;2023-07-08T05:42:37;6.28;;;3.95;;
72427;SDS011;60419;48.880;18.036;2023-07-08T05:45:23;8.90;;;4.38;;
72427;SDS011;60419;48.880;18.036;2023-07-08T05:48:08;6.50;;;3.95;;
72427;SDS011;60419;48.880;18.036;2023-07-08T05:50:54;6.43;;;3.60;;
72427;SDS011;60419;48.880;18.036;2023-07-08T05:53:41;7.13;;;3.75;;
72427;SDS011;60419;48.880;18.036;2023-07-08T05:56:27;6.82;;;3.88;;
72427;SDS011;60419;48.880;18.036;2023-07-08T05:59:13;8.07;;;3.60;;
72427;SDS011;60419;48.880;18.036;2023-07-08T06:01:58;9.40;;;3.88;;
72427;SDS011;60419;48.880;18.036;2023-07-08T06:04:43;6.80;;;3.53;;
72427;SDS011;60419;48.880;18.036;2023-07-08T06:07:29;6.85;;;3.28;;
72427;SDS011;60419;48.880;18.036;2023-07-08T06:10:14;9.15;;;4.05;;
72427;SDS011;60419;48.880;18.036;2023-07-08T06:13:00;7.63;;;3.80;;
72427;SDS011;60419;48.880;18.036;2023-07-08T06:15:45;7.55;;;3.92;;
72427;SDS011;60419;48.880;18.036;2023-07-08T06:18:31;8.10;;;3.60;;
72427;SDS011;60419;48.880;18.036;2023-07-08T06:21:16;6.82;;;3.70;;
72427;SDS011;60419;48.880;18.036;2023-07-08T06:24:01;9.30;;;4.00;;
72427;SDS011;60419;48.880;18.036;2023-07-08T06:26:47;7.05;;;4.10;;
72427;SDS011;60419;48.880;18.036;2023-07-08T06:29:33;8.65;;;4.15;;
72427;SDS011;60419;48.880;18.036;2023-07-08T06:32:19;6.68;;;4.10;;
72427;SDS011;60419;48.880;18.036;2023-07-08T06:35:04;7.90;;;4.13;;
72427;SDS011;60419;48.880;18.036;2023-07-08T06:37:50;9.18;;;4.43;;
72427;SDS011;60419;48.880;18.036;2023-07-08T06:40:35;9.00;;;3.90;;
72427;SDS011;60419;48.880;18.036;2023-07-08T06:43:21;6.18;;;3.90;;
72427;SDS011;60419;48.880;18.036;2023-07-08T06:46:06;8.00;;;4.00;;
72427;SDS011;60419;48.880;18.036;2023-07-08T06:48:52;8.30;;;4.07;;
72427;SDS011;60419;48.880;18.036;2023-07-08T06:51:38;7.82;;;3.60;;
72427;SDS011;60419;48.880;18.036;2023-07-08T06:54:24;7.85;;;3.30;;
72427;SDS011;60419;48.880;18.036;2023-07-08T06:57:10;9.30;;;3.65;;
72427;SDS011;60419;48.880;18.036;2023-07-08T06:59:56;7.78;;;3.28;;
72427;SDS011;60419;48.880;18.036;2023-07-08T07:02:41;5.75;;;3.47;;
72427;SDS011;60419;48.880;18.036;2023-07-08T07:05:28;7.78;;;4.03;;
72427;SDS011;60419;48.880;18.036;2023-07-08T07:08:13;7.20;;;3.85;;
72427;SDS011;60419;48.880;18.036;2023-07-08T07:10:59;6.07;;;3.35;;
72427;SDS011;60419;48.880;18.036;2023-07-08T07:13:44;6.07;;;3.22;;
72427;SDS011;60419;48.880;18.036;2023-07-08T07:16:29;7.75;;;3.50;;
72427;SDS011;60419;48.880;18.036;2023-07-08T07:19:15;5.88;;;3.30;;
72427;SDS011;60419;48.880;18.036;2023-07-08T07:22:00;6.85;;;3.17;;
72427;SDS011;60419;48.880;18.036;2023-07-08T07:24:46;6.70;;;3.35;;
72427;SDS011;60419;48.880;18.036;2023-07-08T07:27:33;6.10;;;2.72;;
72427;SDS011;60419;48.880;18.036;2023-07-08T07:30:19;5.97;;;3.05;;
72427;SDS011;60419;48.880;18.036;2023-07-08T07:33:05;5.90;;;3.00;;
72427;SDS011;60419;48.880;18.036;2023-07-08T07:35:50;5.18;;;2.50;;
72427;SDS011;60419;48.880;18.036;2023-07-08T07:38:36;5.05;;;2.80;;
72427;SDS011;60419;48.880;18.036;2023-07-08T07:41:21;4.72;;;2.88;;
72427;SDS011;60419;48.880;18.036;2023-07-08T07:44:06;6.10;;;2.55;;
72427;SDS011;60419;48.880;18.036;2023-07-08T07:46:52;5.88;;;2.45;;
72427;SDS011;60419;48.880;18.036;2023-07-08T07:49:39;4.35;;;2.55;;
72427;SDS011;60419;48.880;18.036;2023-07-08T07:52:25;5.05;;;2.92;;
72427;SDS011;60419;48.880;18.036;2023-07-08T07:55:10;4.75;;;2.53;;
72427;SDS011;60419;48.880;18.036;2023-07-08T07:57:56;5.47;;;2.80;;
72427;SDS011;60419;48.880;18.036;2023-07-08T08:00:41;4.57;;;2.63;;
72427;SDS011;60419;48.880;18.036;2023-07-08T08:03:27;5.43;;;2.78;;
72427;SDS011;60419;48.880;18.036;2023-07-08T08:06:12;7.28;;;2.97;;
72427;SDS011;60419;48.880;18.036;2023-07-08T08:08:57;4.25;;;2.78;;
72427;SDS011;60419;48.880;18.036;2023-07-08T08:11:43;4.68;;;2.75;;
72427;SDS011;60419;48.880;18.036;2023-07-08T08:14:28;7.93;;;2.80;;
72427;SDS011;60419;48.880;18.036;2023-07-08T08:17:14;4.97;;;2.80;;
72427;SDS011;60419;48.880;18.036;2023-07-08T08:19:59;5.00;;;2.63;;
72427;SDS011;60419;48.880;18.036;2023-07-08T08:22:45;6.47;;;2.63;;
72427;SDS011;60419;48.880;18.036;2023-07-08T08:25:31;6.43;;;2.80;;
72427;SDS011;60419;48.880;18.036;2023-07-08T08:28:17;5.95;;;2.50;;
72427;SDS011;60419;48.880;18.036;2023-07-08T08:31:03;4.65;;;2.35;;
72427;SDS011;60419;48.880;18.036;2023-07-08T08:33:48;5.60;;;2.60;;
72427;SDS011;60419;48.880;18.036;2023-07-08T08:36:33;5.35;;;2.30;;
72427;SDS011;60419;48.880;18.036;2023-07-08T08:39:19;4.32;;;2.30;;
72427;SDS011;60419;48.880;18.036;2023-07-08T08:42:06;4.50;;;2.40;;
72427;SDS011;60419;48.880;18.036;2023-07-08T08:45:04;4.20;;;2.15;;
72427;SDS011;60419;48.880;18.036;2023-07-08T08:47:54;4.63;;;2.13;;
72427;SDS011;60419;48.880;18.036;2023-07-08T08:53:37;3.85;;;2.15;;
72427;SDS011;60419;48.880;18.036;2023-07-08T08:56:25;4.45;;;2.50;;
72427;SDS011;60419;48.880;18.036;2023-07-08T09:05:36;4.13;;;2.15;;
72427;SDS011;60419;48.880;18.036;2023-07-08T09:08:23;4.47;;;2.20;;
72427;SDS011;60419;48.880;18.036;2023-07-08T09:14:25;5.30;;;2.50;;
72427;SDS011;60419;48.880;18.036;2023-07-08T09:20:23;5.57;;;2.15;;
72427;SDS011;60419;48.880;18.036;2023-07-08T09:23:24;4.32;;;2.45;;
72427;SDS011;60419;48.880;18.036;2023-07-08T09:26:13;4.22;;;2.33;;
72427;SDS011;60419;48.880;18.036;2023-07-08T09:29:07;3.85;;;2.25;;
72427;SDS011;60419;48.880;18.036;2023-07-08T09:31:54;4.30;;;2.20;;
72427;SDS011;60419;48.880;18.036;2023-07-08T09:34:41;4.22;;;2.22;;
72427;SDS011;60419;48.880;18.036;2023-07-08T09:37:31;3.80;;;2.30;;
72427;SDS011;60419;48.880;18.036;2023-07-08T09:40:28;4.78;;;2.58;;
72427;SDS011;60419;48.880;18.036;2023-07-08T09:46:00;4.77;;;2.10;;
72427;SDS011;60419;48.880;18.036;2023-07-08T09:48:46;4.65;;;2.63;;
72427;SDS011;60419;48.880;18.036;2023-07-08T09:51:31;4.05;;;2.28;;
72427;SDS011;60419;48.880;18.036;2023-07-08T09:54:17;3.78;;;2.40;;
72427;SDS011;60419;48.880;18.036;2023-07-08T09:57:05;3.75;;;2.13;;
72427;SDS011;60419;48.880;18.036;2023-07-08T10:00:08;4.85;;;2.40;;
72427;SDS011;60419;48.880;18.036;2023-07-08T10:02:57;3.55;;;2.15;;
72427;SDS011;60419;48.880;18.036;2023-07-08T10:05:47;4.97;;;2.40;;
72427;SDS011;60419;48.880;18.036;2023-07-08T10:08:37;4.75;;;2.30;;
72427;SDS011;60419;48.880;18.036;2023-07-08T10:11:29;5.20;;;2.40;;
72427;SDS011;60419;48.880;18.036;2023-07-08T10:14:33;5.40;;;2.65;;
72427;SDS011;60419;48.880;18.036;2023-07-08T10:17:22;4.38;;;2.28;;
72427;SDS011;60419;48.880;18.036;2023-07-08T10:20:10;4.95;;;2.30;;
72427;SDS011;60419;48.880;18.036;2023-07-08T10:26:36;5.03;;;2.22;;
72427;SDS011;60419;48.880;18.036;2023-07-08T10:35:26;5.10;;;2.47;;
72427;SDS011;60419;48.880;18.036;2023-07-08T10:41:30;3.70;;;2.17;;
72427;SDS011;60419;48.880;18.036;2023-07-08T10:44:39;6.63;;;2.88;;
72427;SDS011;60419;48.880;18.036;2023-07-08T10:47:49;3.80;;;2.13;;
72427;SDS011;60419;48.880;18.036;2023-07-08T10:56:59;3.65;;;1.85;;
72427;SDS011;60419;48.880;18.036;2023-07-08T11:06:02;5.13;;;2.50;;
72427;SDS011;60419;48.880;18.036;2023-07-08T11:08:56;3.83;;;2.30;;
72427;SDS011;60419;48.880;18.036;2023-07-08T11:14:45;4.40;;;2.38;;
72427;SDS011;60419;48.880;18.036;2023-07-08T11:21:00;4.50;;;2.08;;
72427;SDS011;60419;48.880;18.036;2023-07-08T11:23:52;4.38;;;2.20;;
72427;SDS011;60419;48.880;18.036;2023-07-08T11:26:45;4.05;;;2.17;;
72427;SDS011;60419;48.880;18.036;2023-07-08T11:29:44;3.88;;;2.30;;
72427;SDS011;60419;48.880;18.036;2023-07-08T11:32:35;4.25;;;2.30;;
72427;SDS011;60419;48.880;18.036;2023-07-08T11:35:44;3.83;;;2.30;;
72427;SDS011;60419;48.880;18.036;2023-07-08T11:38:32;4.78;;;2.30;;
72427;SDS011;60419;48.880;18.036;2023-07-08T11:41:22;3.92;;;2.35;;
72427;SDS011;60419;48.880;18.036;2023-07-08T11:44:11;4.75;;;2.25;;
72427;SDS011;60419;48.880;18.036;2023-07-08T11:46:56;5.82;;;2.35;;
72427;SDS011;60419;48.880;18.036;2023-07-08T11:49:42;3.50;;;2.10;;
72427;SDS011;60419;48.880;18.036;2023-07-08T11:52:30;4.25;;;2.10;;
72427;SDS011;60419;48.880;18.036;2023-07-08T11:55:20;4.05;;;2.25;;
72427;SDS011;60419;48.880;18.036;2023-07-08T11:58:20;4.30;;;2.70;;
72427;SDS011;60419;48.880;18.036;2023-07-08T12:03:59;3.43;;;1.97;;
72427;SDS011;60419;48.880;18.036;2023-07-08T12:13:13;5.05;;;2.40;;
72427;SDS011;60419;48.880;18.036;2023-07-08T12:15:59;4.13;;;2.03;;
72427;SDS011;60419;48.880;18.036;2023-07-08T12:18:45;3.88;;;2.20;;
72427;SDS011;60419;48.880;18.036;2023-07-08T12:21:36;5.05;;;2.08;;
72427;SDS011;60419;48.880;18.036;2023-07-08T12:24:21;6.22;;;2.25;;
72427;SDS011;60419;48.880;18.036;2023-07-08T12:27:11;3.65;;;2.10;;
72427;SDS011;60419;48.880;18.036;2023-07-08T12:29:56;4.38;;;2.00;;
72427;SDS011;60419;48.880;18.036;2023-07-08T12:32:42;3.45;;;2.03;;
72427;SDS011;60419;48.880;18.036;2023-07-08T12:35:30;4.95;;;1.85;;
72427;SDS011;60419;48.880;18.036;2023-07-08T12:38:31;3.25;;;1.90;;
72427;SDS011;60419;48.880;18.036;2023-07-08T12:41:20;3.35;;;1.90;;
72427;SDS011;60419;48.880;18.036;2023-07-08T12:44:40;3.88;;;2.17;;
72427;SDS011;60419;48.880;18.036;2023-07-08T12:47:22;4.40;;;1.85;;
72427;SDS011;60419;48.880;18.036;2023-07-08T12:50:08;6.07;;;2.15;;
72427;SDS011;60419;48.880;18.036;2023-07-08T12:52:55;4.28;;;2.20;;
72427;SDS011;60419;48.880;18.036;2023-07-08T12:55:42;3.78;;;2.00;;
72427;SDS011;60419;48.880;18.036;2023-07-08T12:58:30;3.17;;;1.80;;
72427;SDS011;60419;48.880;18.036;2023-07-08T13:01:22;3.40;;;1.85;;
72427;SDS011;60419;48.880;18.036;2023-07-08T13:04:11;3.75;;;2.20;;
72427;SDS011;60419;48.880;18.036;2023-07-08T13:06:58;4.47;;;2.10;;
72427;SDS011;60419;48.880;18.036;2023-07-08T13:09:45;4.57;;;2.20;;
72427;SDS011;60419;48.880;18.036;2023-07-08T13:12:32;4.07;;;2.28;;
72427;SDS011;60419;48.880;18.036;2023-07-08T13:15:23;5.15;;;2.05;;
72427;SDS011;60419;48.880;18.036;2023-07-08T13:18:14;4.10;;;2.05;;
72427;SDS011;60419;48.880;18.036;2023-07-08T13:21:02;6.28;;;1.88;;
72427;SDS011;60419;48.880;18.036;2023-07-08T13:23:50;4.40;;;2.00;;
72427;SDS011;60419;48.880;18.036;2023-07-08T13:26:35;3.90;;;2.05;;
72427;SDS011;60419;48.880;18.036;2023-07-08T13:29:21;3.97;;;2.00;;
72427;SDS011;60419;48.880;18.036;2023-07-08T13:32:09;4.57;;;2.10;;
72427;SDS011;60419;48.880;18.036;2023-07-08T13:34:55;4.30;;;2.10;;
72427;SDS011;60419;48.880;18.036;2023-07-08T13:37:40;3.65;;;1.95;;
72427;SDS011;60419;48.880;18.036;2023-07-08T13:40:26;3.50;;;2.10;;
72427;SDS011;60419;48.880;18.036;2023-07-08T13:43:13;5.72;;;2.17;;
72427;SDS011;60419;48.880;18.036;2023-07-08T13:46:00;4.45;;;2.25;;
72427;SDS011;60419;48.880;18.036;2023-07-08T13:48:45;3.58;;;2.00;;
72427;SDS011;60419;48.880;18.036;2023-07-08T13:51:33;3.55;;;2.00;;
72427;SDS011;60419;48.880;18.036;2023-07-08T13:57:09;3.72;;;2.25;;
72427;SDS011;60419;48.880;18.036;2023-07-08T14:00:00;2.83;;;1.88;;
72427;SDS011;60419;48.880;18.036;2023-07-08T14:02:46;3.97;;;1.85;;
72427;SDS011;60419;48.880;18.036;2023-07-08T14:05:31;4.57;;;1.92;;
72427;SDS011;60419;48.880;18.036;2023-07-08T14:08:17;3.05;;;1.95;;
72427;SDS011;60419;48.880;18.036;2023-07-08T14:11:03;4.38;;;2.05;;
72427;SDS011;60419;48.880;18.036;2023-07-08T14:13:48;3.90;;;2.08;;
72427;SDS011;60419;48.880;18.036;2023-07-08T14:16:34;3.40;;;2.00;;
72427;SDS011;60419;48.880;18.036;2023-07-08T14:19:29;4.75;;;2.10;;
72427;SDS011;60419;48.880;18.036;2023-07-08T14:22:23;4.85;;;2.03;;
72427;SDS011;60419;48.880;18.036;2023-07-08T14:25:09;4.05;;;1.95;;
72427;SDS011;60419;48.880;18.036;2023-07-08T14:27:56;4.82;;;2.22;;
72427;SDS011;60419;48.880;18.036;2023-07-08T14:30:44;3.58;;;1.90;;
72427;SDS011;60419;48.880;18.036;2023-07-08T14:33:32;3.95;;;1.92;;
72427;SDS011;60419;48.880;18.036;2023-07-08T14:36:17;6.63;;;2.10;;
72427;SDS011;60419;48.880;18.036;2023-07-08T14:39:11;4.13;;;2.15;;
72427;SDS011;60419;48.880;18.036;2023-07-08T14:41:58;2.97;;;1.85;;
72427;SDS011;60419;48.880;18.036;2023-07-08T14:44:44;4.65;;;1.98;;
72427;SDS011;60419;48.880;18.036;2023-07-08T14:47:31;4.82;;;1.98;;
72427;SDS011;60419;48.880;18.036;2023-07-08T14:50:17;2.85;;;1.63;;
72427;SDS011;60419;48.880;18.036;2023-07-08T14:53:02;3.45;;;1.90;;
72427;SDS011;60419;48.880;18.036;2023-07-08T14:55:49;3.90;;;2.40;;
72427;SDS011;60419;48.880;18.036;2023-07-08T14:58:39;4.60;;;1.95;;
72427;SDS011;60419;48.880;18.036;2023-07-08T15:01:28;2.90;;;1.83;;
72427;SDS011;60419;48.880;18.036;2023-07-08T15:04:16;4.45;;;2.25;;
72427;SDS011;60419;48.880;18.036;2023-07-08T15:07:04;3.45;;;1.80;;
72427;SDS011;60419;48.880;18.036;2023-07-08T15:09:50;3.85;;;1.90;;
72427;SDS011;60419;48.880;18.036;2023-07-08T15:12:35;3.30;;;1.80;;
72427;SDS011;60419;48.880;18.036;2023-07-08T15:15:22;3.72;;;1.90;;
72427;SDS011;60419;48.880;18.036;2023-07-08T15:18:13;2.83;;;1.77;;
72427;SDS011;60419;48.880;18.036;2023-07-08T15:21:02;3.22;;;1.85;;
72427;SDS011;60419;48.880;18.036;2023-07-08T15:23:48;5.40;;;2.25;;
72427;SDS011;60419;48.880;18.036;2023-07-08T15:26:34;3.63;;;2.10;;
72427;SDS011;60419;48.880;18.036;2023-07-08T15:29:20;3.08;;;2.00;;
72427;SDS011;60419;48.880;18.036;2023-07-08T15:32:09;3.42;;;2.00;;
72427;SDS011;60419;48.880;18.036;2023-07-08T15:34:58;3.40;;;1.90;;
72427;SDS011;60419;48.880;18.036;2023-07-08T15:37:43;4.00;;;1.83;;
72427;SDS011;60419;48.880;18.036;2023-07-08T15:40:30;4.20;;;2.25;;
72427;SDS011;60419;48.880;18.036;2023-07-08T15:43:17;3.10;;;1.90;;
72427;SDS011;60419;48.880;18.036;2023-07-08T15:46:03;7.47;;;2.08;;
72427;SDS011;60419;48.880;18.036;2023-07-08T15:48:48;3.42;;;1.80;;
72427;SDS011;60419;48.880;18.036;2023-07-08T15:51:33;3.50;;;1.77;;
72427;SDS011;60419;48.880;18.036;2023-07-08T15:54:19;3.80;;;2.20;;
72427;SDS011;60419;48.880;18.036;2023-07-08T15:57:05;3.38;;;2.08;;
72427;SDS011;60419;48.880;18.036;2023-07-08T15:59:53;4.18;;;1.92;;
72427;SDS011;60419;48.880;18.036;2023-07-08T16:02:39;3.50;;;1.88;;
72427;SDS011;60419;48.880;18.036;2023-07-08T16:05:24;3.95;;;2.00;;
72427;SDS011;60419;48.880;18.036;2023-07-08T16:08:10;3.00;;;2.05;;
72427;SDS011;60419;48.880;18.036;2023-07-08T16:10:56;3.40;;;1.85;;
72427;SDS011;60419;48.880;18.036;2023-07-08T16:13:45;6.30;;;2.05;;
72427;SDS011;60419;48.880;18.036;2023-07-08T16:16:32;3.03;;;1.80;;
72427;SDS011;60419;48.880;18.036;2023-07-08T16:19:17;3.95;;;2.00;;
72427;SDS011;60419;48.880;18.036;2023-07-08T16:22:03;3.88;;;2.00;;
72427;SDS011;60419;48.880;18.036;2023-07-08T16:24:48;4.88;;;2.00;;
72427;SDS011;60419;48.880;18.036;2023-07-08T16:27:34;4.70;;;2.08;;
72427;SDS011;60419;48.880;18.036;2023-07-08T16:30:20;4.18;;;2.08;;
72427;SDS011;60419;48.880;18.036;2023-07-08T16:33:07;4.70;;;2.10;;
72427;SDS011;60419;48.880;18.036;2023-07-08T16:35:52;5.55;;;2.05;;
72427;SDS011;60419;48.880;18.036;2023-07-08T16:38:38;4.40;;;1.90;;
72427;SDS011;60419;48.880;18.036;2023-07-08T16:41:25;3.40;;;2.08;;
72427;SDS011;60419;48.880;18.036;2023-07-08T16:44:18;3.30;;;1.88;;
72427;SDS011;60419;48.880;18.036;2023-07-08T16:47:04;4.30;;;2.10;;
72427;SDS011;60419;48.880;18.036;2023-07-08T16:49:52;2.97;;;1.88;;
72427;SDS011;60419;48.880;18.036;2023-07-08T16:52:37;5.93;;;2.20;;
72427;SDS011;60419;48.880;18.036;2023-07-08T16:55:23;3.22;;;1.70;;
72427;SDS011;60419;48.880;18.036;2023-07-08T16:58:12;4.40;;;2.10;;
72427;SDS011;60419;48.880;18.036;2023-07-08T17:00:58;3.70;;;2.00;;
72427;SDS011;60419;48.880;18.036;2023-07-08T17:03:43;3.72;;;2.10;;
72427;SDS011;60419;48.880;18.036;2023-07-08T17:06:28;3.15;;;2.00;;
72427;SDS011;60419;48.880;18.036;2023-07-08T17:09:14;3.58;;;1.80;;
72427;SDS011;60419;48.880;18.036;2023-07-08T17:11:59;3.35;;;2.00;;
72427;SDS011;60419;48.880;18.036;2023-07-08T17:14:45;3.63;;;1.92;;
72427;SDS011;60419;48.880;18.036;2023-07-08T17:17:30;3.70;;;1.95;;
72427;SDS011;60419;48.880;18.036;2023-07-08T17:23:12;4.35;;;1.92;;
72427;SDS011;60419;48.880;18.036;2023-07-08T17:25:59;3.60;;;1.90;;
72427;SDS011;60419;48.880;18.036;2023-07-08T17:28:44;3.88;;;1.95;;
72427;SDS011;60419;48.880;18.036;2023-07-08T17:31:33;3.28;;;2.08;;
72427;SDS011;60419;48.880;18.036;2023-07-08T17:34:19;4.68;;;2.20;;
72427;SDS011;60419;48.880;18.036;2023-07-08T17:37:08;4.53;;;2.05;;
72427;SDS011;60419;48.880;18.036;2023-07-08T17:39:53;3.67;;;1.90;;